Date,TemperatureHighF,TemperatureAvgF,TemperatureLowF,DewpointHighF,DewpointAvgF,DewpointLowF,HumidityHigh,HumidityAvg,HumidityLow,PressureMaxIn,PressureMinIn,WindSpeedMaxMPH,WindSpeedAvgMPH,GustSpeedMaxMPH,PrecipitationSumIn
2013-1-12,78.1,72.5,65.5,71.2,67.8,64.7,98,86,71,29.91,29.81,10,1,13,0.04
2013-1-13,76.3,67.6,65.4,67.2,65.5,64.5,98,93,74,29.89,29.83,8,0,8,0.00
2013-1-14,74.2,67.7,64.7,69.9,66.5,63.8,98,96,80,29.90,29.82,4,0,14,0.54
2013-1-15,64.8,61.3,57.2,63.0,60.5,56.6,99,97,88,29.90,29.85,0,0,0,0.01
2013-1-16,75.5,65.8,56.9,66.6,61.2,55.1,98,86,66,29.90,29.78,8,0,9,0.40
2013-1-17,74.2,65.4,57.1,64.5,60.9,56.5,99,86,69,29.87,29.78,1,0,8,0.01
2013-1-18,73.9,65.5,57.0,66.1,60.2,53.2,98,84,65,29.92,29.81,7,1,15,0.06
2013-1-19,74.5,66.6,57.3,60.5,56.4,53.9,90,71,55,30.01,29.89,3,1,13,0.00
2013-1-20,73.4,65.2,57.0,62.0,58.4,55.0,95,80,62,30.05,29.95,8,1,8,0.00
2013-1-21,74.8,66.9,59.0,64.1,61.1,57.1,94,83,66,30.10,30.01,10,1,11,0.00
2013-1-22,75.9,70.5,65.9,67.5,64.3,61.9,88,81,71,30.10,29.98,14,1,14,0.00
2013-1-23,74.3,70.1,67.3,66.0,63.9,61.4,93,81,72,30.04,29.95,8,1,11,0.00
2013-1-24,76.2,69.6,64.6,69.1,66.2,63.1,97,90,75,30.02,29.92,15,1,15,0.06
2013-1-25,80.7,67.9,60.1,69.7,64.7,59.2,97,90,63,29.99,29.91,6,0,9,0.86
2013-1-26,80.8,69.8,60.4,69.9,64.2,59.8,98,83,59,29.96,29.81,14,1,17,0.01
2013-1-27,73.2,71.4,68.0,69.0,65.5,62.4,96,82,72,29.86,29.79,7,1,16,0.14
2013-1-28,71.5,65.7,60.5,66.8,63.1,59.9,99,92,77,29.94,29.85,9,0,9,0.08
2013-1-29,75.3,67.9,60.6,69.3,64.8,60.1,99,90,77,29.96,29.88,10,1,10,0.01
2013-1-30,75.5,68.5,63.3,68.8,65.9,62.1,98,92,75,30.02,29.95,2,0,8,0.18
2013-1-31,75.0,68.5,62.7,67.1,64.9,62.1,98,89,76,30.07,29.99,9,1,10,0.01